Time;durP1;ratioP1;P1;durP2;ratioP2;P2;SDS_P1;SDS_P2;PMS_P1;PMS_P2;Temp;Humidity;BMP_temperature;BMP_pressure;BME280_temperature;BME280_humidity;BME280_pressure;Samples;Min_cycle;Max_cycle;Signal;HPM_P1;HPM_P2
2022/03/11 00:00:42;;;;;;;16.10;9.07;;;;;;;;;;5058325;28;20091;-71
2022/03/11 00:03:08;;;;;;;15.18;8.68;;;;;;;;;;5059451;28;20055;-71
2022/03/11 00:05:34;;;;;;;15.80;9.50;;;;;;;;;;5058804;28;20449;-71
2022/03/11 00:08:00;;;;;;;15.27;9.25;;;;;;;;;;5042325;28;20048;-71
2022/03/11 00:10:26;;;;;;;16.63;9.00;;;;;;;;;;5061298;28;20075;-71
2022/03/11 00:12:52;;;;;;;14.05;8.85;;;;;;;;;;5058654;28;20037;-72
2022/03/11 00:15:18;;;;;;;17.05;9.38;;;;;;;;;;5057860;28;20072;-70
2022/03/11 00:17:44;;;;;;;15.32;9.45;;;;;;;;;;5024091;28;20388;-70
2022/03/11 00:20:10;;;;;;;16.23;8.48;;;;;;;;;;5041085;28;20056;-70
2022/03/11 00:22:36;;;;;;;14.88;8.55;;;;;;;;;;5057879;28;20049;-71
2022/03/11 00:25:02;;;;;;;17.13;8.75;;;;;;;;;;5040450;28;20041;-71
2022/03/11 00:27:29;;;;;;;17.02;8.88;;;;;;;;;;5058386;28;20497;-72
2022/03/11 00:29:55;;;;;;;18.02;8.70;;;;;;;;;;5058642;28;20380;-71
2022/03/11 00:32:21;;;;;;;14.18;8.55;;;;;;;;;;5058946;28;20033;-72
2022/03/11 00:34:47;;;;;;;18.88;9.55;;;;;;;;;;5058830;28;20055;-72
2022/03/11 00:37:13;;;;;;;16.67;7.97;;;;;;;;;;5040677;28;20057;-71
2022/03/11 00:39:39;;;;;;;19.23;9.20;;;;;;;;;;5058142;28;20056;-71
2022/03/11 00:42:05;;;;;;;13.45;8.32;;;;;;;;;;5058053;28;20053;-71
2022/03/11 00:44:31;;;;;;;14.48;8.60;;;;;;;;;;5057950;28;20053;-71
2022/03/11 00:46:57;;;;;;;13.65;7.82;;;;;;;;;;5057303;28;20051;-71
2022/03/11 00:49:23;;;;;;;17.48;9.20;;;;;;;;;;5040173;28;20077;-72
2022/03/11 00:51:50;;;;;;;16.25;9.27;;;;;;;;;;5057376;28;20041;-71
2022/03/11 00:54:16;;;;;;;13.38;8.07;;;;;;;;;;5039519;28;20538;-71
2022/03/11 00:56:42;;;;;;;14.57;8.20;;;;;;;;;;5057550;28;20052;-71
2022/03/11 00:59:08;;;;;;;15.52;8.77;;;;;;;;;;5057317;28;20059;-71
2022/03/11 01:01:34;;;;;;;15.27;8.20;;;;;;;;;;5057705;28;20110;-71
2022/03/11 01:04:00;;;;;;;14.85;8.68;;;;;;;;;;5057453;28;20488;-71
2022/03/11 01:06:26;;;;;;;14.27;8.25;;;;;;;;;;5038918;28;20045;-71
2022/03/11 01:08:52;;;;;;;17.33;8.10;;;;;;;;;;5038975;28;20120;-71
2022/03/11 01:11:18;;;;;;;15.75;8.57;;;;;;;;;;5057093;28;20154;-71
2022/03/11 01:13:44;;;;;;;18.55;8.57;;;;;;;;;;5040212;28;20041;-71
2022/03/11 01:16:10;;;;;;;16.30;8.30;;;;;;;;;;5057389;28;20133;-71
2022/03/11 01:18:36;;;;;;;15.63;8.57;;;;;;;;;;5056517;28;20123;-71
2022/03/11 01:21:02;;;;;;;14.85;8.93;;;;;;;;;;5057649;28;20451;-72
2022/03/11 01:23:28;;;;;;;15.45;8.43;;;;;;;;;;5056270;28;20052;-72
2022/03/11 01:25:54;;;;;;;15.77;8.50;;;;;;;;;;5056197;28;20480;-72
2022/03/11 01:28:20;;;;;;;15.30;8.55;;;;;;;;;;5057031;28;20103;-72
2022/03/11 01:30:46;;;;;;;15.82;8.82;;;;;;;;;;5056982;28;20041;-71
2022/03/11 01:33:12;;;;;;;14.95;8.88;;;;;;;;;;5057010;28;20052;-73
2022/03/11 01:35:38;;;;;;;13.13;8.15;;;;;;;;;;5057509;28;20057;-71
2022/03/11 01:38:04;;;;;;;17.75;8.48;;;;;;;;;;5022565;28;20048;-71
2022/03/11 01:40:30;;;;;;;16.90;9.68;;;;;;;;;;5056752;28;20131;-71
2022/03/11 01:42:56;;;;;;;14.27;8.75;;;;;;;;;;5038830;28;20064;-71
2022/03/11 01:45:22;;;;;;;17.88;9.20;;;;;;;;;;5056462;28;20480;-71
2022/03/11 01:47:48;;;;;;;21.02;9.93;;;;;;;;;;5038439;28;20044;-71
2022/03/11 01:50:14;;;;;;;18.35;9.27;;;;;;;;;;5056724;28;20041;-72
2022/03/11 01:52:40;;;;;;;18.42;9.70;;;;;;;;;;5039596;28;20493;-71
2022/03/11 01:55:06;;;;;;;18.38;9.85;;;;;;;;;;5057792;28;20132;-71
2022/03/11 01:57:36;;;;;;;18.27;9.43;;;;;;;;;;5039148;28;20049;-71
2022/03/11 02:00:07;;;;;;;18.42;10.05;;;;;;;;;;5056840;28;20041;-72
2022/03/11 02:02:33;;;;;;;16.98;9.68;;;;;;;;;;5039106;28;20056;-72
2022/03/11 02:04:58;;;;;;;19.60;10.40;;;;;;;;;;5058859;28;20053;-71
2022/03/11 02:07:24;;;;;;;18.52;10.55;;;;;;;;;;5060709;28;20503;-71
2022/03/11 02:09:50;;;;;;;22.88;10.80;;;;;;;;;;5060075;28;20049;-72
2022/03/11 02:12:30;;;;;;;22.25;11.63;;;;;;;;;;5059404;28;20041;-71
2022/03/11 02:14:56;;;;;;;19.95;10.55;;;;;;;;;;5058093;28;20136;-71
2022/03/11 02:17:22;;;;;;;23.75;10.57;;;;;;;;;;5058021;28;20116;-72
2022/03/11 02:19:48;;;;;;;21.88;11.18;;;;;;;;;;5058991;28;20072;-71
2022/03/11 02:22:16;;;;;;;23.75;11.77;;;;;;;;;;5024669;28;20052;-72
2022/03/11 02:24:42;;;;;;;21.20;11.25;;;;;;;;;;5039445;28;20079;-71
2022/03/11 02:27:08;;;;;;;21.17;11.63;;;;;;;;;;5022188;28;20044;-71
2022/03/11 02:29:34;;;;;;;22.15;12.10;;;;;;;;;;5056090;28;20045;-71
2022/03/11 02:32:00;;;;;;;21.27;11.10;;;;;;;;;;5057439;28;20052;-71
2022/03/11 02:34:26;;;;;;;26.48;12.63;;;;;;;;;;5056383;28;20437;-71
2022/03/11 02:36:52;;;;;;;23.02;11.85;;;;;;;;;;5055995;28;20078;-71
2022/03/11 02:39:18;;;;;;;23.73;12.05;;;;;;;;;;5055902;28;20446;-71
2022/03/11 02:41:47;;;;;;;24.85;12.45;;;;;;;;;;5055616;28;20067;-71
2022/03/11 02:44:13;;;;;;;22.92;11.73;;;;;;;;;;5055324;28;20045;-70
2022/03/11 02:46:39;;;;;;;24.63;12.70;;;;;;;;;;5054933;28;20048;-71
2022/03/11 02:49:05;;;;;;;22.77;12.02;;;;;;;;;;5037546;28;20120;-71
2022/03/11 02:51:31;;;;;;;28.58;13.30;;;;;;;;;;5055506;28;20480;-70
2022/03/11 02:53:57;;;;;;;27.42;14.40;;;;;;;;;;5055754;28;20036;-71
2022/03/11 02:56:23;;;;;;;31.50;13.57;;;;;;;;;;5055956;28;20132;-71
2022/03/11 02:58:49;;;;;;;26.77;14.00;;;;;;;;;;5055793;28;20045;-71
2022/03/11 03:01:15;;;;;;;30.35;14.25;;;;;;;;;;5038380;28;20495;-71
2022/03/11 03:03:41;;;;;;;25.10;13.93;;;;;;;;;;5056244;28;20041;-71
2022/03/11 03:06:08;;;;;;;31.65;14.85;;;;;;;;;;5038367;28;20480;-71
2022/03/11 03:08:34;;;;;;;27.35;14.85;;;;;;;;;;5038082;28;20139;-70
2022/03/11 03:11:00;;;;;;;28.48;14.30;;;;;;;;;;5055609;28;20045;-71
2022/03/11 03:13:26;;;;;;;28.13;15.00;;;;;;;;;;5055540;28;20080;-71
2022/03/11 03:15:52;;;;;;;26.58;14.82;;;;;;;;;;5055295;28;20053;-70
2022/03/11 03:18:18;;;;;;;26.02;13.75;;;;;;;;;;5056220;28;20442;-71
2022/03/11 03:20:45;;;;;;;26.20;14.35;;;;;;;;;;5056321;28;20499;-71
2022/03/11 03:23:11;;;;;;;36.80;15.75;;;;;;;;;;5055702;28;20049;-71
2022/03/11 03:25:37;;;;;;;29.13;15.65;;;;;;;;;;5055553;28;20495;-71
2022/03/11 03:28:03;;;;;;;29.23;14.88;;;;;;;;;;5042580;28;20049;-71
2022/03/11 03:30:29;;;;;;;31.17;15.00;;;;;;;;;;5040718;28;20053;-71
2022/03/11 03:32:55;;;;;;;32.58;15.18;;;;;;;;;;5057737;28;20053;-71
2022/03/11 03:35:21;;;;;;;28.75;14.73;;;;;;;;;;5058808;28;20045;-71
2022/03/11 03:37:47;;;;;;;28.27;14.90;;;;;;;;;;5039396;28;20045;-71
2022/03/11 03:40:13;;;;;;;27.23;14.65;;;;;;;;;;5039050;28;20499;-71
2022/03/11 03:42:39;;;;;;;32.17;15.68;;;;;;;;;;5059536;28;20090;-71
2022/03/11 03:45:06;;;;;;;29.38;15.35;;;;;;;;;;5041096;28;20055;-71
2022/03/11 03:47:32;;;;;;;28.83;16.02;;;;;;;;;;5040963;28;20045;-71
2022/03/11 03:49:58;;;;;;;33.83;16.42;;;;;;;;;;5040973;28;20048;-72
2022/03/11 03:52:24;;;;;;;30.33;15.45;;;;;;;;;;5058525;28;20547;-71
2022/03/11 03:54:50;;;;;;;30.52;16.08;;;;;;;;;;5041288;28;20080;-71
2022/03/11 03:57:16;;;;;;;30.55;16.23;;;;;;;;;;5040868;28;20045;-71
2022/03/11 03:59:42;;;;;;;33.75;15.65;;;;;;;;;;5059953;28;20084;-71
2022/03/11 04:02:08;;;;;;;32.55;16.30;;;;;;;;;;5024814;28;20053;-71
2022/03/11 04:04:34;;;;;;;32.80;16.98;;;;;;;;;;5059048;28;20484;-73
2022/03/11 04:07:00;;;;;;;32.15;15.98;;;;;;;;;;5024387;28;20045;-70
2022/03/11 04:09:26;;;;;;;29.98;16.13;;;;;;;;;;5041351;28;20052;-71
2022/03/11 04:11:52;;;;;;;37.13;17.58;;;;;;;;;;5041714;28;20047;-71
2022/03/11 04:14:18;;;;;;;34.55;16.52;;;;;;;;;;5041921;28;20172;-72
2022/03/11 04:16:44;;;;;;;35.67;17.70;;;;;;;;;;5027760;28;20052;-72
2022/03/11 04:19:10;;;;;;;35.45;17.88;;;;;;;;;;5061003;28;20045;-71
2022/03/11 04:21:36;;;;;;;38.63;17.92;;;;;;;;;;5049740;28;20053;-72
2022/03/11 04:24:02;;;;;;;35.78;17.27;;;;;;;;;;5039710;28;20044;-72
2022/03/11 04:26:28;;;;;;;36.80;17.90;;;;;;;;;;5021072;28;20080;-71
2022/03/11 04:28:54;;;;;;;35.67;16.08;;;;;;;;;;5037592;28;20101;-71
2022/03/11 04:31:20;;;;;;;36.05;17.85;;;;;;;;;;5037856;28;20033;-72
2022/03/11 04:33:46;;;;;;;32.90;17.02;;;;;;;;;;5038619;28;20413;-71
2022/03/11 04:36:12;;;;;;;35.58;17.92;;;;;;;;;;5020556;28;20102;-72
2022/03/11 04:38:38;;;;;;;36.38;17.80;;;;;;;;;;5038376;28;20037;-72
2022/03/11 04:41:04;;;;;;;36.53;18.60;;;;;;;;;;5036928;28;20132;-70
2022/03/11 04:43:30;;;;;;;35.80;17.88;;;;;;;;;;5038531;28;20041;-70
2022/03/11 04:45:56;;;;;;;37.67;18.05;;;;;;;;;;5038239;28;20049;-71
2022/03/11 04:48:22;;;;;;;37.17;18.27;;;;;;;;;;5037578;28;20042;-71
2022/03/11 04:50:48;;;;;;;33.45;17.98;;;;;;;;;;5038245;28;20527;-71
2022/03/11 04:53:14;;;;;;;37.22;17.95;;;;;;;;;;5019707;28;20075;-71
2022/03/11 04:55:40;;;;;;;36.40;18.60;;;;;;;;;;5037202;28;20098;-71
2022/03/11 04:58:06;;;;;;;36.38;18.73;;;;;;;;;;5037472;28;20124;-71
2022/03/11 05:00:32;;;;;;;38.22;19.05;;;;;;;;;;5037576;28;20545;-71
2022/03/11 05:02:58;;;;;;;37.65;18.20;;;;;;;;;;5037407;28;20061;-71
2022/03/11 05:05:25;;;;;;;36.05;18.80;;;;;;;;;;5038932;28;20045;-71
2022/03/11 05:07:51;;;;;;;35.63;17.55;;;;;;;;;;5021840;28;20056;-71
2022/03/11 05:10:18;;;;;;;34.45;18.30;;;;;;;;;;5025274;28;20050;-72
2022/03/11 05:12:44;;;;;;;34.67;19.15;;;;;;;;;;5024394;28;20045;-72
2022/03/11 05:15:11;;;;;;;35.80;18.98;;;;;;;;;;5039937;28;20103;-71
2022/03/11 05:17:37;;;;;;;35.80;19.27;;;;;;;;;;5024001;28;20046;-72
2022/03/11 05:20:07;;;;;;;38.63;19.60;;;;;;;;;;5021622;28;20148;-72
2022/03/11 05:22:33;;;;;;;36.50;17.98;;;;;;;;;;5038154;28;20064;-72
2022/03/11 05:24:59;;;;;;;48.85;19.42;;;;;;;;;;5020927;28;20048;-71
2022/03/11 05:27:25;;;;;;;38.42;19.35;;;;;;;;;;5038248;28;20156;-72
2022/03/11 05:29:51;;;;;;;44.30;20.35;;;;;;;;;;5037779;28;20061;-72
2022/03/11 05:32:20;;;;;;;38.25;18.60;;;;;;;;;;5037771;28;20504;-72
2022/03/11 05:34:46;;;;;;;39.80;18.92;;;;;;;;;;5037294;28;20045;-72
2022/03/11 05:37:13;;;;;;;44.17;20.17;;;;;;;;;;5019207;28;20057;-71
2022/03/11 05:39:39;;;;;;;40.25;18.63;;;;;;;;;;5036625;28;20053;-71
2022/03/11 05:42:05;;;;;;;34.72;17.88;;;;;;;;;;5036054;28;20504;-71
2022/03/11 05:44:32;;;;;;;39.33;19.27;;;;;;;;;;5035991;28;20037;-72
2022/03/11 05:46:58;;;;;;;37.63;18.73;;;;;;;;;;5019188;28;20132;-71
2022/03/11 05:49:24;;;;;;;39.85;19.63;;;;;;;;;;5035470;28;20127;-71
2022/03/11 05:51:51;;;;;;;39.78;20.25;;;;;;;;;;5036505;28;20391;-71
2022/03/11 05:54:17;;;;;;;36.85;18.77;;;;;;;;;;5036784;28;20133;-73
2022/03/11 05:56:43;;;;;;;39.53;19.55;;;;;;;;;;5035701;28;20081;-71
2022/03/11 05:59:09;;;;;;;38.50;17.83;;;;;;;;;;5034825;28;20045;-70
2022/03/11 06:01:36;;;;;;;38.88;19.88;;;;;;;;;;5036648;28;20049;-71
2022/03/11 06:04:04;;;;;;;38.92;18.90;;;;;;;;;;5034365;28;20033;-70
2022/03/11 06:06:33;;;;;;;41.92;19.63;;;;;;;;;;5018115;28;20507;-71
2022/03/11 06:09:00;;;;;;;43.50;19.77;;;;;;;;;;5034873;28;20519;-70
2022/03/11 06:11:27;;;;;;;47.38;20.30;;;;;;;;;;5017578;28;20054;-71
2022/03/11 06:13:53;;;;;;;42.75;19.48;;;;;;;;;;5034977;28;20065;-71
2022/03/11 06:16:19;;;;;;;49.08;21.65;;;;;;;;;;5017644;28;20057;-74
2022/03/11 06:18:45;;;;;;;44.75;19.48;;;;;;;;;;5036783;28;20046;-70
2022/03/11 06:21:11;;;;;;;37.40;18.65;;;;;;;;;;5033159;28;20045;-72
2022/03/11 06:23:38;;;;;;;40.40;19.35;;;;;;;;;;5017036;28;20061;-71
2022/03/11 06:26:04;;;;;;;46.72;20.13;;;;;;;;;;5016262;28;20544;-71
2022/03/11 06:28:30;;;;;;;41.00;19.45;;;;;;;;;;5036146;28;20048;-72
2022/03/11 06:30:56;;;;;;;36.92;18.80;;;;;;;;;;5017458;28;20057;-72
2022/03/11 06:33:22;;;;;;;46.83;20.02;;;;;;;;;;5033431;28;20091;-72
2022/03/11 06:35:48;;;;;;;41.97;19.20;;;;;;;;;;5034117;28;20091;-71
2022/03/11 06:38:14;;;;;;;49.33;20.67;;;;;;;;;;5034654;28;20075;-72
2022/03/11 06:40:40;;;;;;;56.70;21.67;;;;;;;;;;5018309;28;20056;-72
2022/03/11 06:43:06;;;;;;;47.15;19.98;;;;;;;;;;5034422;28;20045;-72
2022/03/11 06:45:32;;;;;;;51.88;22.20;;;;;;;;;;5033751;28;20512;-72
2022/03/11 06:47:59;;;;;;;41.55;19.70;;;;;;;;;;5033805;28;20050;-72
2022/03/11 06:50:25;;;;;;;36.97;19.15;;;;;;;;;;5033716;28;20089;-72
2022/03/11 06:52:52;;;;;;;63.83;23.80;;;;;;;;;;5034609;28;20053;-72
2022/03/11 06:55:18;;;;;;;71.35;23.20;;;;;;;;;;5035096;28;20041;-73
2022/03/11 06:57:45;;;;;;;55.63;23.17;;;;;;;;;;5017969;28;20107;-73
2022/03/11 07:00:12;;;;;;;53.65;21.77;;;;;;;;;;5036687;28;20099;-72
2022/03/11 07:02:39;;;;;;;40.92;19.80;;;;;;;;;;5037742;28;20112;-72
2022/03/11 07:05:05;;;;;;;47.75;20.67;;;;;;;;;;5037382;28;20144;-72
2022/03/11 07:07:33;;;;;;;39.13;17.88;;;;;;;;;;5039936;28;20049;-73
2022/03/11 07:09:59;;;;;;;44.75;20.75;;;;;;;;;;5021590;28;20054;-72
2022/03/11 07:12:26;;;;;;;35.33;18.52;;;;;;;;;;5035279;28;20049;-74
2022/03/11 07:14:52;;;;;;;42.13;18.45;;;;;;;;;;5022704;28;20041;-72
2022/03/11 07:17:18;;;;;;;43.65;19.20;;;;;;;;;;5042372;28;20084;-73
2022/03/11 07:19:44;;;;;;;40.13;18.35;;;;;;;;;;5043743;28;20084;-72
2022/03/11 07:22:10;;;;;;;47.95;18.90;;;;;;;;;;5045893;28;20041;-72
2022/03/11 07:24:36;;;;;;;40.95;18.40;;;;;;;;;;5047817;28;20042;-72
2022/03/11 07:27:02;;;;;;;42.38;19.13;;;;;;;;;;5043924;28;20053;-73
2022/03/11 07:29:28;;;;;;;41.10;19.08;;;;;;;;;;5043243;28;20125;-72
2022/03/11 07:31:54;;;;;;;36.45;17.83;;;;;;;;;;5041201;28;20122;-72
2022/03/11 07:34:21;;;;;;;45.67;18.60;;;;;;;;;;5043424;28;20136;-72
2022/03/11 07:36:47;;;;;;;37.85;18.92;;;;;;;;;;5061044;28;20057;-72
2022/03/11 07:39:12;;;;;;;48.55;20.38;;;;;;;;;;5062760;28;20053;-72
2022/03/11 07:41:39;;;;;;;42.60;18.33;;;;;;;;;;5047017;28;20074;-72
2022/03/11 07:44:05;;;;;;;41.60;19.13;;;;;;;;;;5046192;28;20077;-72
2022/03/11 07:46:31;;;;;;;35.97;17.88;;;;;;;;;;5065534;28;20049;-72
2022/03/11 07:48:58;;;;;;;37.90;18.05;;;;;;;;;;5066060;28;20041;-72
2022/03/11 07:51:25;;;;;;;35.42;17.80;;;;;;;;;;5063945;28;20041;-72
2022/03/11 07:53:51;;;;;;;37.95;17.98;;;;;;;;;;5067906;28;20044;-73
2022/03/11 07:56:17;;;;;;;48.97;19.83;;;;;;;;;;5056506;28;20472;-74
2022/03/11 07:58:43;;;;;;;36.15;18.25;;;;;;;;;;5035823;28;20485;-74
2022/03/11 08:01:10;;;;;;;33.90;17.80;;;;;;;;;;5037590;28;20041;-72
2022/03/11 08:03:37;;;;;;;38.92;18.77;;;;;;;;;;5037807;28;20057;-72
2022/03/11 08:06:04;;;;;;;39.35;17.85;;;;;;;;;;5038224;28;20046;-72
2022/03/11 08:08:30;;;;;;;37.67;17.95;;;;;;;;;;5039660;28;20128;-72
2022/03/11 08:10:56;;;;;;;39.63;17.88;;;;;;;;;;5021709;28;20139;-72
2022/03/11 08:13:23;;;;;;;35.50;17.42;;;;;;;;;;5040230;28;20408;-72
2022/03/11 08:15:49;;;;;;;38.65;17.92;;;;;;;;;;5020938;28;20459;-72
2022/03/11 08:18:15;;;;;;;33.63;17.30;;;;;;;;;;5039028;28;20056;-72
2022/03/11 08:20:41;;;;;;;32.58;17.20;;;;;;;;;;5023351;28;20103;-71
2022/03/11 08:23:08;;;;;;;37.90;18.75;;;;;;;;;;5019899;28;20045;-72
2022/03/11 08:25:34;;;;;;;37.38;18.25;;;;;;;;;;5037107;28;20077;-71
2022/03/11 08:28:00;;;;;;;37.05;17.73;;;;;;;;;;5037292;28;20041;-72
2022/03/11 08:30:27;;;;;;;48.42;20.00;;;;;;;;;;5039251;28;20048;-73
2022/03/11 08:32:53;;;;;;;35.83;17.70;;;;;;;;;;5042786;28;20071;-72
2022/03/11 08:35:20;;;;;;;39.42;18.80;;;;;;;;;;5037106;28;20420;-72
2022/03/11 08:37:46;;;;;;;37.40;18.75;;;;;;;;;;5021235;28;20175;-72
2022/03/11 08:40:13;;;;;;;38.15;17.73;;;;;;;;;;5039906;28;20041;-73
2022/03/11 08:42:39;;;;;;;41.05;19.42;;;;;;;;;;5035980;28;20100;-73
2022/03/11 08:45:06;;;;;;;41.08;19.05;;;;;;;;;;5036349;28;20046;-73
2022/03/11 08:47:32;;;;;;;41.45;18.38;;;;;;;;;;5036177;28;20041;-72
2022/03/11 08:49:58;;;;;;;42.47;19.17;;;;;;;;;;5036075;28;20049;-71
2022/03/11 08:52:25;;;;;;;38.30;18.95;;;;;;;;;;5035831;28;20511;-72
2022/03/11 08:54:52;;;;;;;40.85;19.35;;;;;;;;;;5037059;28;20057;-72
2022/03/11 08:57:18;;;;;;;33.95;16.92;;;;;;;;;;5036346;28;20049;-72
2022/03/11 08:59:44;;;;;;;38.13;17.20;;;;;;;;;;5035664;28;20477;-72
2022/03/11 09:02:10;;;;;;;32.70;16.88;;;;;;;;;;5018747;28;20049;-73
2022/03/11 09:04:36;;;;;;;37.10;18.58;;;;;;;;;;5035317;28;20487;-72
2022/03/11 09:07:02;;;;;;;35.20;17.13;;;;;;;;;;5036759;28;20041;-72
2022/03/11 09:09:29;;;;;;;33.75;17.45;;;;;;;;;;5036544;28;20167;-73
2022/03/11 09:11:55;;;;;;;33.50;17.92;;;;;;;;;;5002590;28;20060;-73
2022/03/11 09:14:21;;;;;;;37.33;18.20;;;;;;;;;;5036932;28;20045;-73
2022/03/11 09:16:47;;;;;;;31.75;17.27;;;;;;;;;;5037559;28;20045;-72
2022/03/11 09:19:13;;;;;;;46.08;18.45;;;;;;;;;;5036874;28;20096;-72
2022/03/11 09:21:39;;;;;;;38.60;18.77;;;;;;;;;;5038066;28;20133;-73
2022/03/11 09:24:06;;;;;;;45.45;17.67;;;;;;;;;;5037075;28;20046;-72
2022/03/11 09:26:32;;;;;;;34.97;17.08;;;;;;;;;;5037313;28;20111;-72
2022/03/11 09:28:58;;;;;;;40.65;19.63;;;;;;;;;;5037981;28;20140;-73
2022/03/11 09:31:24;;;;;;;40.42;18.42;;;;;;;;;;5038934;28;20083;-72
2022/03/11 09:33:50;;;;;;;37.20;18.33;;;;;;;;;;5038061;28;20052;-72
2022/03/11 09:36:17;;;;;;;32.25;18.13;;;;;;;;;;5020376;28;20053;-71
2022/03/11 09:38:43;;;;;;;44.38;20.42;;;;;;;;;;5038399;28;20049;-72
2022/03/11 09:41:10;;;;;;;36.70;18.35;;;;;;;;;;5038801;28;20055;-72
2022/03/11 09:43:37;;;;;;;37.40;17.08;;;;;;;;;;5038314;28;20048;-72
2022/03/11 09:46:04;;;;;;;46.55;19.20;;;;;;;;;;5037522;28;20084;-73
2022/03/11 09:48:30;;;;;;;32.47;17.52;;;;;;;;;;5037445;28;20041;-72
2022/03/11 09:50:59;;;;;;;37.40;17.98;;;;;;;;;;5037327;28;20472;-72
2022/03/11 09:53:26;;;;;;;32.88;17.63;;;;;;;;;;5036602;28;20373;-73
2022/03/11 09:55:52;;;;;;;35.25;17.15;;;;;;;;;;5037894;28;20045;-73
2022/03/11 09:58:18;;;;;;;30.58;16.83;;;;;;;;;;5017986;28;20103;-72
2022/03/11 10:00:46;;;;;;;32.22;17.13;;;;;;;;;;5019606;28;20041;-72
2022/03/11 10:03:12;;;;;;;31.95;16.85;;;;;;;;;;5034796;28;20128;-73
2022/03/11 10:05:46;;;;;;;33.25;16.45;;;;;;;;;;5036127;28;20126;-73
2022/03/11 10:08:12;;;;;;;32.15;16.92;;;;;;;;;;5019304;28;20057;-73
2022/03/11 10:10:38;;;;;;;44.00;18.45;;;;;;;;;;5038326;28;20037;-73
2022/03/11 10:13:07;;;;;;;39.05;17.95;;;;;;;;;;5025456;28;20554;-73
2022/03/11 10:15:33;;;;;;;;;;;;;;;;;;5041420;28;20053;-71
2022/03/11 10:18:02;;;;;;;38.17;17.33;;;;;;;;;;5041019;28;20269;-72
2022/03/11 10:20:28;;;;;;;;;;;;;;;;;;5037737;28;20046;-72
2022/03/11 10:22:55;;;;;;;35.58;17.10;;;;;;;;;;5038717;28;19975;-73
2022/03/11 10:25:28;;;;;;;27.52;16.30;;;;;;;;;;5034563;28;20049;-74
2022/03/11 10:27:57;;;;;;;31.02;15.93;;;;;;;;;;5004824;28;20101;-73
2022/03/11 10:30:23;;;;;;;30.27;16.25;;;;;;;;;;5037581;28;20416;-73
2022/03/11 10:32:53;;;;;;;32.42;16.88;;;;;;;;;;5040256;28;20041;-72
2022/03/11 10:35:19;;;;;;;28.13;16.40;;;;;;;;;;5018347;28;20053;-71
2022/03/11 10:38:01;;;;;;;30.42;16.80;;;;;;;;;;5037377;28;20048;-72
2022/03/11 10:40:31;;;;;;;32.35;16.52;;;;;;;;;;5037609;28;20120;-72
2022/03/11 10:43:14;;;;;;;31.35;16.38;;;;;;;;;;5017231;28;20100;-72
2022/03/11 10:45:50;;;;;;;29.85;16.00;;;;;;;;;;5033550;28;20045;-72
2022/03/11 10:48:17;;;;;;;30.92;15.40;;;;;;;;;;5017032;28;20132;-72
2022/03/11 10:50:43;;;;;;;29.77;17.10;;;;;;;;;;5033843;28;20392;-71
2022/03/11 10:53:10;;;;;;;43.42;17.33;;;;;;;;;;5033981;28;20052;-71
2022/03/11 10:55:40;;;;;;;29.98;15.93;;;;;;;;;;5016771;28;20184;-72
2022/03/11 10:58:07;;;;;;;25.77;15.93;;;;;;;;;;5016676;28;20063;-71
2022/03/11 11:00:37;;;;;;;30.63;16.00;;;;;;;;;;5033586;28;20048;-72
2022/03/11 11:03:08;;;;;;;32.08;16.55;;;;;;;;;;5034554;28;20066;-73
2022/03/11 11:05:34;;;;;;;28.48;15.75;;;;;;;;;;5000870;28;20056;-72
2022/03/11 11:08:02;;;;;;;35.85;17.55;;;;;;;;;;5035193;28;20048;-72
2022/03/11 11:10:29;;;;;;;30.58;15.73;;;;;;;;;;5035584;28;20080;-73
2022/03/11 11:12:56;;;;;;;33.30;17.20;;;;;;;;;;5034978;28;20052;-72
2022/03/11 11:15:22;;;;;;;29.75;16.80;;;;;;;;;;5034613;28;20045;-73
2022/03/11 11:17:52;;;;;;;28.40;15.88;;;;;;;;;;5016552;28;20099;-72
2022/03/11 11:20:18;;;;;;;27.35;15.88;;;;;;;;;;5034343;28;20045;-72
2022/03/11 11:22:44;;;;;;;27.10;15.90;;;;;;;;;;5033867;28;20372;-72
2022/03/11 11:25:11;;;;;;;38.15;18.20;;;;;;;;;;5034513;28;20041;-73
2022/03/11 11:27:38;;;;;;;26.60;15.20;;;;;;;;;;5034674;28;20037;-73
2022/03/11 11:30:05;;;;;;;30.58;16.48;;;;;;;;;;5032870;28;20369;-74
2022/03/11 11:32:31;;;;;;;30.60;16.35;;;;;;;;;;5033212;28;20069;-74
2022/03/11 11:35:17;;;;;;;31.95;17.52;;;;;;;;;;5033432;28;20041;-73
2022/03/11 11:37:43;;;;;;;36.70;17.05;;;;;;;;;;5015847;28;20064;-72
2022/03/11 11:40:19;;;;;;;40.15;18.45;;;;;;;;;;5033856;28;20404;-73
2022/03/11 11:43:04;;;;;;;42.72;18.80;;;;;;;;;;5033694;28;20489;-73
2022/03/11 11:45:40;;;;;;;41.67;18.05;;;;;;;;;;5033747;28;20431;-73
2022/03/11 11:48:06;;;;;;;25.15;15.18;;;;;;;;;;5034253;28;20048;-73
2022/03/11 11:50:43;;;;;;;26.75;15.95;;;;;;;;;;5017651;28;20400;-73
2022/03/11 11:53:09;;;;;;;39.00;17.08;;;;;;;;;;5035017;28;20120;-73
2022/03/11 11:55:40;;;;;;;27.02;15.82;;;;;;;;;;5035267;28;20081;-72
2022/03/11 11:58:22;;;;;;;29.75;15.32;;;;;;;;;;5034291;28;20045;-75
2022/03/11 12:00:54;;;;;;;21.27;14.77;;;;;;;;;;5032437;28;20084;-74
2022/03/11 12:03:20;;;;;;;23.05;14.82;;;;;;;;;;5036420;28;20045;-74
2022/03/11 12:05:49;;;;;;;22.23;14.15;;;;;;;;;;5036715;28;20052;-75
2022/03/11 12:08:34;;;;;;;24.65;15.00;;;;;;;;;;5037327;28;20060;-72
2022/03/11 12:11:00;;;;;;;25.58;14.50;;;;;;;;;;5041033;28;20049;-73
2022/03/11 12:13:32;;;;;;;25.60;15.05;;;;;;;;;;5040154;28;20041;-72
2022/03/11 12:15:58;;;;;;;21.08;14.27;;;;;;;;;;5037648;28;20102;-72
2022/03/11 12:18:37;;;;;;;33.55;16.70;;;;;;;;;;5039102;28;20041;-73
2022/03/11 12:21:04;;;;;;;41.80;17.95;;;;;;;;;;5040458;28;20045;-73
2022/03/11 12:23:32;;;;;;;24.17;14.57;;;;;;;;;;5038048;28;20111;-72
2022/03/11 12:25:59;;;;;;;20.70;14.30;;;;;;;;;;5036818;28;20061;-72
2022/03/11 12:28:28;;;;;;;19.05;14.10;;;;;;;;;;5037492;28;20049;-73
2022/03/11 12:30:55;;;;;;;25.50;14.73;;;;;;;;;;5037477;28;20213;-73
2022/03/11 12:33:23;;;;;;;22.87;14.83;;;;;;;;;;5039263;28;20049;-73
2022/03/11 12:35:50;;;;;;;22.20;15.25;;;;;;;;;;5021133;28;20477;-73
2022/03/11 12:38:17;;;;;;;43.10;18.65;;;;;;;;;;5038209;28;20460;-74
2022/03/11 12:40:44;;;;;;;39.63;17.27;;;;;;;;;;5037850;28;20091;-74
2022/03/11 12:43:11;;;;;;;21.02;14.07;;;;;;;;;;5037075;28;20041;-76
2022/03/11 12:45:42;;;;;;;23.17;14.85;;;;;;;;;;5036010;28;20366;-74
2022/03/11 12:48:09;;;;;;;28.95;15.20;;;;;;;;;;5037542;28;20117;-73
2022/03/11 12:50:36;;;;;;;26.70;15.35;;;;;;;;;;5038036;28;20054;-74
2022/03/11 12:53:02;;;;;;;29.60;15.30;;;;;;;;;;5037551;28;20100;-74
2022/03/11 12:55:33;;;;;;;31.55;15.93;;;;;;;;;;5038117;28;20053;-73
2022/03/11 12:58:00;;;;;;;24.77;13.93;;;;;;;;;;5038259;28;20049;-72
2022/03/11 13:00:29;;;;;;;25.50;14.55;;;;;;;;;;5036642;28;20370;-73
2022/03/11 13:02:56;;;;;;;26.17;14.02;;;;;;;;;;5039808;28;20076;-73
2022/03/11 13:05:22;;;;;;;24.95;14.43;;;;;;;;;;5037497;28;20546;-73
2022/03/11 13:07:48;;;;;;;23.55;13.85;;;;;;;;;;5036527;28;20110;-73
2022/03/11 13:10:24;;;;;;;24.05;14.45;;;;;;;;;;5035603;28;20084;-74
2022/03/11 13:12:54;;;;;;;22.67;14.40;;;;;;;;;;5036231;28;20048;-73
2022/03/11 13:15:22;;;;;;;21.10;13.43;;;;;;;;;;5018822;28;20045;-73
2022/03/11 13:17:50;;;;;;;;;;;;;;;;;;5037837;28;20057;-73
2022/03/11 13:20:29;;;;;;;20.80;14.05;;;;;;;;;;5037719;28;19928;-73
2022/03/11 13:22:55;;;;;;;23.05;13.63;;;;;;;;;;5036459;28;20090;-73
2022/03/11 13:25:25;;;;;;;22.67;13.93;;;;;;;;;;5037095;28;20045;-72
2022/03/11 13:27:52;;;;;;;30.63;15.30;;;;;;;;;;5040617;28;20063;-72
2022/03/11 13:30:29;;;;;;;18.58;13.15;;;;;;;;;;5038473;28;20045;-73
2022/03/11 13:32:55;;;;;;;27.40;14.35;;;;;;;;;;5036156;28;20385;-73
2022/03/11 13:35:32;;;;;;;21.58;13.30;;;;;;;;;;5017660;28;20053;-73
2022/03/11 13:37:58;;;;;;;21.40;13.10;;;;;;;;;;5036167;28;20060;-73
2022/03/11 13:40:24;;;;;;;22.00;12.52;;;;;;;;;;5034803;28;20477;-73
2022/03/11 13:42:57;;;;;;;19.38;11.93;;;;;;;;;;5036144;28;20045;-74
2022/03/11 13:45:27;;;;;;;24.80;13.52;;;;;;;;;;5035309;28;20481;-73
2022/03/11 13:48:09;;;;;;;18.70;12.40;;;;;;;;;;5035074;28;20045;-73
2022/03/11 13:50:36;;;;;;;21.95;12.35;;;;;;;;;;5035440;28;20481;-74
2022/03/11 13:53:02;;;;;;;18.13;12.75;;;;;;;;;;5035147;28;20045;-73
2022/03/11 13:55:35;;;;;;;30.67;14.32;;;;;;;;;;5034817;28;20091;-73
2022/03/11 13:58:21;;;;;;;16.63;11.60;;;;;;;;;;5017353;28;20132;-73
2022/03/11 14:00:50;;;;;;;19.20;12.20;;;;;;;;;;5035938;28;20045;-73
2022/03/11 14:03:20;;;;;;;17.35;11.60;;;;;;;;;;5034690;28;20045;-73
2022/03/11 14:05:47;;;;;;;20.05;12.32;;;;;;;;;;5034870;28;20042;-73
2022/03/11 14:08:14;;;;;;;19.52;12.50;;;;;;;;;;5016977;28;20053;-75
2022/03/11 14:10:45;;;;;;;24.38;12.88;;;;;;;;;;5034356;28;20077;-75
2022/03/11 14:13:12;;;;;;;27.60;13.95;;;;;;;;;;5034719;28;20358;-74
2022/03/11 14:15:43;;;;;;;22.23;12.57;;;;;;;;;;5034578;28;20096;-73
2022/03/11 14:18:13;;;;;;;28.95;14.85;;;;;;;;;;5034689;28;20054;-73
2022/03/11 14:20:40;;;;;;;24.48;12.70;;;;;;;;;;5034571;28;20080;-73